Main page
METAR-TAF:

METAR-TAF

Airports :

Florennes, Belgium

Florennes Air Base

latitude: 50-14N, longitude: 004-39E, elevation: 279 m

Current weather observation

The report was made 27 minutes ago, at 11:06 UTC
Wind 10 kt from the Southwest
Temperature 11°C
Humidity 71%
Pressure 1019 hPa
Visibility 10 km or more
Few clouds at a height of 2300 ft
Broken clouds at a height of 4000 ft

METAR: EBFS 261106Z 22010KT 9999 FEW023 BKN040 11/06 Q1019 BLU BLU TEMPO WHT

Time: 13:33 (11:33 UTC)

Forecast

The report was made 2 hours and 52 minutes ago, at 08:41 UTC
Forecast valid from 26 at 10 UTC to 26 at 19 UTC
Wind 15 kt from the West/Southwest with gusts up to 25 kt
Visibility 10 km or more
Scattered clouds at a height of 2000 ft
Probability 30% :
Temporary
from 26 at 10 UTC to 26 at 15 UTC
Visibility: 6000 m
light rain showers
Becoming
from 26 at 11 UTC to 26 at 13 UTC
Scattered clouds at a height of 3000 ft

TAF: EBFS 260841Z 2610/2619 25015G25KT 9999 SCT020 PROB30 TEMPO 2610/2615 6000 -SHRA BECMG 2611/2613 SCT030

Weather observations and forecasts of more than 4000 airports (METAR and TAF reports).

The available stations are represented by yellow and red dots on the map.

Hover mouse over dot to see the name of the station.

Then click to see weather observations and forecasts.

To change the map : click on the green buttons with a black cross to zoom in, on the green button with a dash to zoom out, or on the green arrows for adjacent maps.


METAR-TAF: